createdAt,value
2019-01-31T16:16:22.156Z,2.40
2019-01-31T16:20:23.515Z,2.42
2019-01-31T16:24:24.925Z,2.25
2019-01-31T16:28:26.162Z,2.60
2019-01-31T16:32:27.590Z,2.40
2019-01-31T16:36:29.056Z,2.80
2019-01-31T16:40:30.414Z,2.45
2019-01-31T16:44:32.021Z,2.83
2019-01-31T16:48:35.997Z,2.70
2019-01-31T16:52:37.321Z,2.87
2019-01-31T16:56:38.822Z,3.05
2019-01-31T17:00:40.120Z,3.30
2019-01-31T17:04:41.431Z,3.55
2019-01-31T17:08:42.902Z,3.05
2019-01-31T17:12:44.409Z,2.85
2019-01-31T17:16:45.771Z,3.40
2019-01-31T17:20:47.244Z,3.80
2019-01-31T17:24:48.675Z,4.53
2019-01-31T17:28:50.286Z,5.00
2019-01-31T17:32:52.280Z,4.35
2019-01-31T17:36:53.704Z,5.50
2019-01-31T17:40:55.254Z,4.97
2019-01-31T17:44:56.801Z,5.30
2019-01-31T17:48:58.270Z,5.62
2019-01-31T17:52:59.711Z,6.00
2019-01-31T17:57:01.067Z,5.47
2019-01-31T18:01:02.795Z,5.47
2019-01-31T18:05:07.952Z,5.10
2019-01-31T18:09:09.501Z,7.03
2019-01-31T18:13:10.925Z,5.85
2019-01-31T18:17:12.934Z,4.95
2019-01-31T18:21:14.681Z,5.60
2019-01-31T18:25:16.119Z,5.42
2019-01-31T18:29:18.534Z,5.87
2019-01-31T18:33:19.989Z,6.25
2019-01-31T18:37:21.269Z,6.22
2019-01-31T18:41:22.796Z,5.25
2019-01-31T18:45:30.315Z,6.70
2019-01-31T18:49:31.877Z,7.12
2019-01-31T18:53:33.097Z,7.53
2019-01-31T18:57:34.618Z,6.80
2019-01-31T19:01:36.239Z,7.35
2019-01-31T19:05:37.736Z,6.60
2019-01-31T19:09:39.151Z,6.08
2019-01-31T19:13:40.604Z,6.30
2019-01-31T19:17:42.031Z,6.03
2019-01-31T19:21:43.676Z,6.45
2019-01-31T19:25:47.242Z,5.90
2019-01-31T19:29:48.684Z,6.15
2019-01-31T19:33:51.794Z,6.25
2019-01-31T19:38:01.458Z,5.83
2019-01-31T19:41:57.501Z,6.50
2019-01-31T19:45:58.982Z,6.65
2019-01-31T19:50:00.551Z,6.28
2019-01-31T19:54:02.000Z,6.00
2019-01-31T19:58:03.831Z,6.58
2019-01-31T20:02:05.383Z,6.58
2019-01-31T20:06:06.989Z,6.05
2019-01-31T20:10:15.353Z,6.03
2019-01-31T20:14:16.734Z,6.25
2019-01-31T20:18:18.095Z,6.12
2019-01-31T20:22:19.700Z,6.47
2019-01-31T20:26:21.315Z,8.25
2019-01-31T20:30:24.873Z,6.28
2019-01-31T20:34:26.310Z,7.10
2019-01-31T20:38:27.958Z,6.97
2019-01-31T20:42:29.415Z,6.42
2019-01-31T20:46:39.680Z,7.30
2019-01-31T20:50:36.276Z,6.37
2019-01-31T20:54:37.703Z,6.58
2019-01-31T20:58:39.017Z,6.83
2019-01-31T21:02:40.491Z,6.62
2019-01-31T21:06:42.057Z,6.28
2019-01-31T21:10:43.476Z,6.03
2019-01-31T21:14:44.910Z,6.70
2019-01-31T21:18:46.762Z,6.95
2019-01-31T21:22:48.575Z,7.50
2019-01-31T21:26:50.106Z,6.95
2019-01-31T21:30:51.380Z,7.65
2019-01-31T21:34:52.714Z,6.83
2019-01-31T21:38:54.051Z,6.55
2019-01-31T21:42:55.325Z,6.75
2019-01-31T21:47:03.153Z,6.33
2019-01-31T21:51:00.074Z,5.55
2019-01-31T21:55:01.470Z,5.80
2019-01-31T21:59:03.125Z,5.40
2019-01-31T22:03:05.479Z,4.33
2019-01-31T22:07:06.860Z,5.05
2019-01-31T22:11:07.997Z,4.60
2019-01-31T22:15:13.244Z,4.78
2019-01-31T22:19:14.667Z,5.17
2019-01-31T22:23:16.226Z,4.35
2019-01-31T22:27:17.498Z,4.80
2019-01-31T22:31:18.888Z,4.78
2019-01-31T22:35:20.329Z,4.25
2019-01-31T22:39:21.687Z,4.45
2019-01-31T22:43:23.091Z,4.08
2019-01-31T22:47:26.259Z,4.37
2019-01-31T22:51:27.747Z,4.40
2019-01-31T22:55:29.012Z,3.67
2019-01-31T22:59:30.549Z,4.03
2019-01-31T23:03:31.996Z,3.95
2019-01-31T23:07:33.404Z,3.47
2019-01-31T23:11:34.859Z,3.65
2019-01-31T23:15:36.209Z,3.27
2019-01-31T23:19:37.682Z,2.83
2019-01-31T23:23:38.939Z,3.10
2019-01-31T23:27:40.209Z,2.90
2019-01-31T23:31:41.873Z,3.00
2019-01-31T23:35:43.149Z,2.98
2019-01-31T23:39:44.457Z,3.52
2019-01-31T23:43:45.831Z,3.55
2019-01-31T23:47:48.860Z,6.17
2019-01-31T23:51:50.306Z,3.85
2019-01-31T23:55:51.559Z,3.70
2019-01-31T23:59:53.002Z,2.90
